Time;durP1;ratioP1;P1;durP2;ratioP2;P2;SDS_P1;SDS_P2;PMS_P1;PMS_P2;Temp;Humidity;BMP_temperature;BMP_pressure;BME280_temperature;BME280_humidity;BME280_pressure;Samples;Min_cycle;Max_cycle;Signal;HPM_P1;HPM_P2
2023/01/09 00:01:16;;;;;;;6.78;1.77;;;;;;;;;;4959890;28;20435;-71
2023/01/09 00:03:43;;;;;;;6.72;1.50;;;;;;;;;;4962131;28;20062;-71
2023/01/09 00:06:10;;;;;;;5.55;1.55;;;;;;;;;;4963504;28;20621;-71
2023/01/09 00:08:38;;;;;;;5.40;1.40;;;;;;;;;;4961439;28;20046;-70
2023/01/09 00:11:05;;;;;;;7.03;1.60;;;;;;;;;;4955508;28;20054;-71
2023/01/09 00:13:32;;;;;;;7.50;1.90;;;;;;;;;;4962846;28;20432;-71
2023/01/09 00:15:59;;;;;;;8.18;1.45;;;;;;;;;;4963175;28;20054;-71
2023/01/09 00:18:28;;;;;;;7.25;1.50;;;;;;;;;;4964398;28;20413;-70
2023/01/09 00:20:55;;;;;;;6.65;1.77;;;;;;;;;;4955302;28;20058;-71
2023/01/09 00:23:22;;;;;;;4.70;1.50;;;;;;;;;;4955050;28;20043;-70
2023/01/09 00:25:49;;;;;;;5.75;1.38;;;;;;;;;;4955901;28;20074;-70
2023/01/09 00:28:17;;;;;;;8.68;1.50;;;;;;;;;;4961613;28;20051;-71
2023/01/09 00:30:44;;;;;;;9.65;1.63;;;;;;;;;;4964012;28;20134;-70
2023/01/09 00:33:11;;;;;;;6.40;1.60;;;;;;;;;;4957440;28;20086;-71
2023/01/09 00:35:40;;;;;;;8.27;1.65;;;;;;;;;;4957860;28;20393;-71
2023/01/09 00:38:07;;;;;;;8.75;1.75;;;;;;;;;;4965471;28;20047;-71
2023/01/09 00:40:34;;;;;;;8.75;1.90;;;;;;;;;;4960328;28;20062;-71
2023/01/09 00:43:01;;;;;;;6.57;1.63;;;;;;;;;;4961021;28;20047;-71
2023/01/09 00:45:29;;;;;;;7.05;1.80;;;;;;;;;;4961895;28;20088;-70
2023/01/09 00:48:00;;;;;;;6.40;1.75;;;;;;;;;;4951823;28;20054;-71
2023/01/09 00:50:29;;;;;;;9.52;2.00;;;;;;;;;;4960184;28;20047;-71
2023/01/09 00:53:00;;;;;;;7.35;1.60;;;;;;;;;;4963606;28;20047;-71
2023/01/09 00:55:27;;;;;;;6.18;1.60;;;;;;;;;;4962559;28;20055;-72
2023/01/09 00:57:56;;;;;;;8.40;1.65;;;;;;;;;;4964461;28;21003;-70
2023/01/09 01:00:23;;;;;;;7.13;1.60;;;;;;;;;;4964290;28;20097;-70
2023/01/09 01:02:50;;;;;;;6.45;1.63;;;;;;;;;;4964914;28;20077;-71
2023/01/09 01:08:10;;;;;;;7.47;1.80;;;;;;;;;;4966342;28;20162;-71
2023/01/09 01:10:37;;;;;;;9.52;1.60;;;;;;;;;;4971371;28;20082;-71
2023/01/09 01:13:04;;;;;;;7.50;1.67;;;;;;;;;;4968610;28;20050;-71
2023/01/09 01:15:32;;;;;;;4.43;1.42;;;;;;;;;;4964057;28;20058;-70
2023/01/09 01:17:59;;;;;;;7.43;1.48;;;;;;;;;;4968783;28;20054;-71
2023/01/09 01:20:26;;;;;;;5.72;1.70;;;;;;;;;;4966091;28;20056;-71
2023/01/09 01:22:54;;;;;;;4.95;1.48;;;;;;;;;;4964300;28;20043;-71
2023/01/09 01:25:22;;;;;;;13.52;1.77;;;;;;;;;;4963558;28;20065;-69
2023/01/09 01:27:50;;;;;;;7.68;1.33;;;;;;;;;;4958105;28;20053;-70
2023/01/09 01:30:18;;;;;;;8.10;1.52;;;;;;;;;;4964482;28;20050;-70
2023/01/09 01:32:46;;;;;;;13.30;2.85;;;;;;;;;;4959738;28;20409;-70
2023/01/09 01:35:13;;;;;;;11.18;1.27;;;;;;;;;;4963621;28;20320;-71
2023/01/09 01:37:40;;;;;;;11.95;1.60;;;;;;;;;;4966036;28;20061;-70
2023/01/09 01:40:09;;;;;;;11.38;1.75;;;;;;;;;;4963539;28;20047;-70
2023/01/09 01:42:45;;;;;;;11.57;1.73;;;;;;;;;;4956305;28;20328;-70
2023/01/09 01:45:14;;;;;;;8.15;1.50;;;;;;;;;;4965447;28;20332;-70
2023/01/09 01:47:44;;;;;;;13.60;1.75;;;;;;;;;;4961335;28;20039;-70
2023/01/09 01:50:16;;;;;;;8.98;1.40;;;;;;;;;;4961822;28;20043;-70
2023/01/09 01:52:45;;;;;;;14.02;1.75;;;;;;;;;;4964521;28;20073;-70
2023/01/09 01:55:13;;;;;;;7.05;1.38;;;;;;;;;;4965225;28;20154;-70
2023/01/09 01:57:43;;;;;;;8.82;1.40;;;;;;;;;;4959195;28;20057;-70
2023/01/09 02:00:12;;;;;;;12.52;1.70;;;;;;;;;;4965917;28;20051;-71
2023/01/09 02:02:41;;;;;;;15.95;1.40;;;;;;;;;;4966926;28;20509;-70
2023/01/09 02:05:09;;;;;;;14.68;1.75;;;;;;;;;;4966960;28;20058;-70
2023/01/09 02:07:36;;;;;;;7.18;1.27;;;;;;;;;;4966601;28;20058;-70
2023/01/09 02:10:03;;;;;;;11.63;1.45;;;;;;;;;;4974738;28;20050;-71
2023/01/09 02:12:31;;;;;;;19.15;1.38;;;;;;;;;;4968897;28;20077;-71
2023/01/09 02:15:02;;;;;;;16.85;2.47;;;;;;;;;;4965894;28;20051;-71
2023/01/09 02:17:53;;;;;;;9.25;1.10;;;;;;;;;;4964729;28;20496;-71
2023/01/09 02:20:36;;;;;;;10.52;0.93;;;;;;;;;;4960396;28;20148;-70
2023/01/09 02:23:11;;;;;;;12.25;1.25;;;;;;;;;;4960693;28;20488;-71
2023/01/09 02:25:47;;;;;;;8.50;1.20;;;;;;;;;;4966279;28;20505;-71
2023/01/09 02:28:34;;;;;;;19.00;1.25;;;;;;;;;;4965373;28;20047;-71
2023/01/09 02:31:06;;;;;;;16.00;1.60;;;;;;;;;;4964803;28;20051;-71
2023/01/09 02:33:40;;;;;;;15.05;1.25;;;;;;;;;;4967037;28;20055;-71
2023/01/09 02:36:18;;;;;;;9.88;1.35;;;;;;;;;;4967358;28;20557;-71
2023/01/09 02:38:49;;;;;;;10.98;1.88;;;;;;;;;;4967549;28;20061;-70
2023/01/09 02:41:18;;;;;;;13.07;1.15;;;;;;;;;;4964645;28;20058;-70
2023/01/09 02:43:46;;;;;;;15.68;1.40;;;;;;;;;;4967156;28;20076;-70
2023/01/09 02:46:19;;;;;;;13.48;1.80;;;;;;;;;;4962596;28;20058;-71
2023/01/09 02:48:47;;;;;;;16.00;1.85;;;;;;;;;;4964862;28;20050;-70
2023/01/09 02:51:20;;;;;;;12.18;1.10;;;;;;;;;;4965627;28;20058;-71
2023/01/09 02:54:11;;;;;;;14.25;1.25;;;;;;;;;;4965785;28;20070;-71
2023/01/09 02:56:48;;;;;;;14.93;1.45;;;;;;;;;;4957598;28;20059;-70
2023/01/09 02:59:21;;;;;;;16.08;2.53;;;;;;;;;;4967183;28;20529;-71
2023/01/09 03:01:55;;;;;;;8.80;1.33;;;;;;;;;;4967909;28;20058;-70
2023/01/09 03:04:27;;;;;;;13.23;1.73;;;;;;;;;;4967531;28;21467;-70
2023/01/09 03:06:56;;;;;;;15.18;2.80;;;;;;;;;;4968445;28;20050;-71
2023/01/09 03:09:26;;;;;;;9.90;1.70;;;;;;;;;;4965089;28;20055;-70
2023/01/09 03:11:56;;;;;;;11.18;1.38;;;;;;;;;;4967157;28;20061;-70
2023/01/09 03:14:24;;;;;;;14.00;1.45;;;;;;;;;;4964436;28;20051;-71
2023/01/09 03:16:54;;;;;;;13.70;2.08;;;;;;;;;;4966561;28;20063;-71
2023/01/09 03:19:23;;;;;;;16.35;2.00;;;;;;;;;;4966443;28;20066;-70
2023/01/09 03:21:51;;;;;;;9.40;1.35;;;;;;;;;;4964062;28;20054;-70
2023/01/09 03:24:18;;;;;;;8.52;1.35;;;;;;;;;;4966619;28;20050;-71
2023/01/09 03:26:46;;;;;;;13.23;1.42;;;;;;;;;;4966104;28;20489;-70
2023/01/09 03:29:13;;;;;;;10.93;1.80;;;;;;;;;;4965765;28;20429;-71
2023/01/09 03:31:40;;;;;;;12.32;1.50;;;;;;;;;;4960318;28;20058;-71
2023/01/09 03:34:09;;;;;;;12.15;1.60;;;;;;;;;;4964662;28;20486;-71
2023/01/09 03:36:36;;;;;;;12.63;2.08;;;;;;;;;;4966925;28;20050;-71
2023/01/09 03:39:03;;;;;;;11.13;1.33;;;;;;;;;;4967795;28;20053;-71
2023/01/09 03:41:30;;;;;;;11.80;1.67;;;;;;;;;;4962221;28;20122;-71
2023/01/09 03:43:58;;;;;;;12.77;1.92;;;;;;;;;;4967715;28;20047;-71
2023/01/09 03:46:25;;;;;;;12.13;1.95;;;;;;;;;;4964728;28;20063;-71
2023/01/09 03:48:52;;;;;;;17.15;1.77;;;;;;;;;;4970142;28;20409;-71
2023/01/09 03:51:20;;;;;;;11.85;2.22;;;;;;;;;;4967684;28;20054;-71
2023/01/09 03:53:48;;;;;;;20.52;2.42;;;;;;;;;;4967253;28;20074;-71
2023/01/09 03:56:15;;;;;;;15.30;3.00;;;;;;;;;;4967009;28;20047;-71
2023/01/09 03:58:42;;;;;;;10.80;2.70;;;;;;;;;;4965141;28;20046;-71
2023/01/09 04:01:11;;;;;;;16.80;2.95;;;;;;;;;;4963828;28;20058;-71
2023/01/09 04:03:38;;;;;;;15.45;2.45;;;;;;;;;;4965521;28;20043;-70
2023/01/09 04:06:06;;;;;;;11.57;2.55;;;;;;;;;;4962010;28;20142;-71
2023/01/09 04:08:35;;;;;;;16.63;2.72;;;;;;;;;;4961586;28;20042;-71
2023/01/09 04:11:02;;;;;;;12.48;2.95;;;;;;;;;;4961757;28;20405;-71
2023/01/09 04:13:29;;;;;;;14.10;3.70;;;;;;;;;;4960088;28;20051;-71
2023/01/09 04:15:56;;;;;;;11.88;3.65;;;;;;;;;;4965951;28;20051;-71
2023/01/09 04:18:23;;;;;;;16.25;4.18;;;;;;;;;;4967859;28;20069;-70
2023/01/09 04:20:51;;;;;;;14.70;4.22;;;;;;;;;;4965693;28;20533;-71
2023/01/09 04:23:18;;;;;;;14.18;4.00;;;;;;;;;;4966815;28;20146;-72
2023/01/09 04:25:47;;;;;;;15.02;4.20;;;;;;;;;;4968378;28;20054;-71
2023/01/09 04:28:15;;;;;;;20.38;4.32;;;;;;;;;;4968116;28;20140;-71
2023/01/09 04:30:42;;;;;;;13.68;4.97;;;;;;;;;;4961583;28;20101;-71
2023/01/09 04:33:09;;;;;;;18.08;4.50;;;;;;;;;;4968466;28;20105;-71
2023/01/09 04:35:36;;;;;;;12.93;5.07;;;;;;;;;;4969054;28;20062;-71
2023/01/09 04:38:03;;;;;;;15.65;4.97;;;;;;;;;;4961832;28;20042;-71
2023/01/09 04:40:31;;;;;;;13.98;5.40;;;;;;;;;;4971240;28;20514;-71
2023/01/09 04:42:59;;;;;;;12.43;5.75;;;;;;;;;;4972728;28;20047;-71
2023/01/09 04:45:26;;;;;;;14.48;5.85;;;;;;;;;;4968571;28;20062;-71
2023/01/09 04:47:54;;;;;;;15.80;6.07;;;;;;;;;;4973831;28;20095;-71
2023/01/09 04:50:21;;;;;;;15.43;6.53;;;;;;;;;;4970237;28;20105;-71
2023/01/09 04:52:48;;;;;;;22.25;6.63;;;;;;;;;;4972697;28;20046;-71
2023/01/09 04:55:15;;;;;;;16.63;6.28;;;;;;;;;;4968110;28;20110;-71
2023/01/09 04:57:42;;;;;;;14.93;6.90;;;;;;;;;;4971865;28;20520;-71
2023/01/09 05:00:12;;;;;;;20.25;6.30;;;;;;;;;;4969722;28;20070;-71
2023/01/09 05:02:39;;;;;;;17.42;7.05;;;;;;;;;;4969937;28;20516;-71
2023/01/09 05:05:07;;;;;;;21.33;7.30;;;;;;;;;;4971499;28;20070;-72
2023/01/09 05:07:34;;;;;;;17.77;6.35;;;;;;;;;;4969474;28;20066;-71
2023/01/09 05:10:01;;;;;;;16.40;6.88;;;;;;;;;;4969242;28;20513;-71
2023/01/09 05:12:29;;;;;;;14.43;6.80;;;;;;;;;;4968301;28;20043;-71
2023/01/09 05:14:56;;;;;;;18.30;6.80;;;;;;;;;;4967249;28;20055;-71
2023/01/09 05:17:25;;;;;;;16.38;6.72;;;;;;;;;;4970544;28;20467;-71
2023/01/09 05:19:52;;;;;;;9.48;6.07;;;;;;;;;;4967924;28;20065;-71
2023/01/09 05:22:19;;;;;;;16.98;6.38;;;;;;;;;;4971662;28;20051;-71
2023/01/09 05:24:47;;;;;;;13.50;6.32;;;;;;;;;;4968734;28;20094;-71
2023/01/09 05:27:14;;;;;;;11.35;5.70;;;;;;;;;;4970157;28;20055;-71
2023/01/09 05:29:41;;;;;;;19.00;6.57;;;;;;;;;;4969544;28;20043;-70
2023/01/09 05:32:08;;;;;;;22.67;6.72;;;;;;;;;;4969732;28;20536;-71
2023/01/09 05:34:37;;;;;;;18.52;6.00;;;;;;;;;;4964360;28;20110;-70
2023/01/09 05:37:04;;;;;;;14.38;6.13;;;;;;;;;;4969716;28;20058;-71
2023/01/09 05:39:31;;;;;;;19.85;6.57;;;;;;;;;;4966694;28;20043;-71
2023/01/09 05:41:58;;;;;;;17.70;6.68;;;;;;;;;;4970597;28;20038;-71
2023/01/09 05:44:25;;;;;;;11.52;5.55;;;;;;;;;;4965478;28;20146;-71
2023/01/09 05:46:53;;;;;;;17.00;6.60;;;;;;;;;;4962550;28;20514;-71
2023/01/09 05:49:20;;;;;;;17.20;6.38;;;;;;;;;;4960176;28;20055;-71
2023/01/09 05:51:48;;;;;;;24.65;7.40;;;;;;;;;;4960231;28;20514;-71
2023/01/09 05:54:16;;;;;;;16.55;6.90;;;;;;;;;;4963203;28;20518;-71
2023/01/09 05:56:43;;;;;;;19.88;7.07;;;;;;;;;;4966469;28;20062;-71
2023/01/09 05:59:10;;;;;;;17.70;7.47;;;;;;;;;;4975850;28;20054;-71
2023/01/09 06:01:37;;;;;;;16.05;8.23;;;;;;;;;;4960368;28;20050;-71
2023/01/09 06:04:05;;;;;;;23.65;9.23;;;;;;;;;;4962828;28;20577;-71
2023/01/09 06:06:32;;;;;;;18.48;8.88;;;;;;;;;;4962640;28;20506;-71
2023/01/09 06:09:02;;;;;;;22.70;9.60;;;;;;;;;;4957189;28;20058;-71
2023/01/09 06:11:29;;;;;;;20.33;9.90;;;;;;;;;;4964338;28;20149;-71
2023/01/09 06:13:56;;;;;;;20.38;9.50;;;;;;;;;;4957690;28;20051;-71
2023/01/09 06:16:24;;;;;;;18.33;9.80;;;;;;;;;;4962593;28;20046;-71
2023/01/09 06:18:51;;;;;;;21.48;10.13;;;;;;;;;;4962270;28;20101;-71
2023/01/09 06:21:18;;;;;;;20.73;10.02;;;;;;;;;;4959731;28;20063;-70
2023/01/09 06:23:45;;;;;;;21.25;9.63;;;;;;;;;;4962002;28;20498;-71
2023/01/09 06:26:14;;;;;;;17.80;9.95;;;;;;;;;;4968622;28;20051;-71
2023/01/09 06:28:41;;;;;;;17.90;9.65;;;;;;;;;;4964100;28;20070;-71
2023/01/09 06:31:08;;;;;;;18.10;9.20;;;;;;;;;;4964488;28;20062;-71
2023/01/09 06:33:35;;;;;;;18.85;9.57;;;;;;;;;;4965464;28;20066;-71
2023/01/09 06:36:03;;;;;;;25.45;8.85;;;;;;;;;;4966333;28;20617;-70
2023/01/09 06:38:30;;;;;;;20.50;8.75;;;;;;;;;;4966192;28;20053;-71
2023/01/09 06:40:57;;;;;;;22.00;9.32;;;;;;;;;;4965077;28;20536;-70
2023/01/09 06:43:26;;;;;;;20.48;8.60;;;;;;;;;;4963978;28;20047;-71
2023/01/09 06:45:54;;;;;;;16.75;9.02;;;;;;;;;;4966836;28;20053;-71
2023/01/09 06:48:21;;;;;;;15.93;9.50;;;;;;;;;;4966648;28;20504;-71
2023/01/09 06:50:48;;;;;;;21.02;9.25;;;;;;;;;;4969183;28;20505;-71
2023/01/09 06:53:16;;;;;;;20.45;9.75;;;;;;;;;;4970724;28;20058;-71
2023/01/09 06:55:43;;;;;;;19.80;9.73;;;;;;;;;;4970328;28;20057;-71
2023/01/09 06:58:10;;;;;;;27.38;11.82;;;;;;;;;;4965772;28;20054;-71
2023/01/09 07:00:39;;;;;;;19.88;10.32;;;;;;;;;;4964764;28;20065;-70
2023/01/09 07:03:06;;;;;;;19.58;10.32;;;;;;;;;;4966149;28;20047;-71
2023/01/09 07:05:35;;;;;;;24.05;10.80;;;;;;;;;;4962515;28;20059;-71
2023/01/09 07:08:02;;;;;;;21.02;11.30;;;;;;;;;;4960057;28;20533;-70
2023/01/09 07:10:29;;;;;;;17.27;11.00;;;;;;;;;;4961647;28;20050;-71
2023/01/09 07:12:57;;;;;;;20.77;10.88;;;;;;;;;;4961638;28;20055;-71
2023/01/09 07:15:24;;;;;;;20.98;11.05;;;;;;;;;;4967743;28;20058;-70
2023/01/09 07:17:53;;;;;;;18.75;10.60;;;;;;;;;;4968898;28;20058;-71
2023/01/09 07:20:20;;;;;;;21.27;10.85;;;;;;;;;;4968328;28;20059;-71
2023/01/09 07:22:48;;;;;;;19.33;10.77;;;;;;;;;;4969690;28;20505;-71
2023/01/09 07:25:15;;;;;;;19.58;10.52;;;;;;;;;;4960988;28;20059;-70
2023/01/09 07:27:42;;;;;;;20.63;10.98;;;;;;;;;;4967338;28;20054;-70
2023/01/09 07:30:10;;;;;;;14.75;9.95;;;;;;;;;;4960854;28;20070;-71
2023/01/09 07:32:39;;;;;;;18.20;9.68;;;;;;;;;;4968243;28;20058;-71
2023/01/09 07:35:08;;;;;;;18.80;9.50;;;;;;;;;;4963798;28;20510;-71
2023/01/09 07:37:35;;;;;;;17.55;9.43;;;;;;;;;;4965838;28;20438;-71
2023/01/09 07:40:03;;;;;;;29.25;11.60;;;;;;;;;;4959567;28;20046;-71
2023/01/09 07:42:31;;;;;;;20.67;10.13;;;;;;;;;;4958838;28;20062;-71
2023/01/09 07:44:58;;;;;;;18.63;10.02;;;;;;;;;;4960850;28;20054;-71
2023/01/09 07:47:25;;;;;;;18.40;9.60;;;;;;;;;;4960187;28;20047;-71
2023/01/09 07:49:52;;;;;;;18.73;10.52;;;;;;;;;;4953928;28;20562;-71
2023/01/09 07:52:21;;;;;;;17.58;10.00;;;;;;;;;;4962594;28;20051;-71
2023/01/09 07:54:49;;;;;;;19.25;10.52;;;;;;;;;;4962223;28;20058;-71
2023/01/09 07:57:16;;;;;;;21.15;11.63;;;;;;;;;;4960860;28;20051;-71
2023/01/09 07:59:43;;;;;;;19.70;11.52;;;;;;;;;;4964564;28;20073;-71
2023/01/09 08:02:11;;;;;;;18.17;10.68;;;;;;;;;;4960176;28;20047;-71
2023/01/09 08:04:38;;;;;;;20.38;11.02;;;;;;;;;;4962227;28;20109;-71
2023/01/09 08:07:05;;;;;;;17.73;10.27;;;;;;;;;;4964088;28;20054;-70
2023/01/09 08:09:34;;;;;;;23.02;11.60;;;;;;;;;;4968736;28;20054;-71
2023/01/09 08:12:02;;;;;;;16.50;10.40;;;;;;;;;;4963037;28;20050;-71
2023/01/09 08:14:30;;;;;;;20.77;9.88;;;;;;;;;;4965301;28;20050;-71
2023/01/09 08:16:57;;;;;;;17.10;9.70;;;;;;;;;;4964254;28;20047;-71
2023/01/09 08:19:24;;;;;;;17.23;9.02;;;;;;;;;;4966864;28;20047;-71
2023/01/09 08:21:51;;;;;;;15.18;8.80;;;;;;;;;;4960678;28;20505;-71
2023/01/09 08:24:19;;;;;;;20.48;9.15;;;;;;;;;;4967890;28;20054;-71
2023/01/09 08:26:47;;;;;;;12.70;7.88;;;;;;;;;;4969601;28;20510;-71
2023/01/09 08:29:15;;;;;;;16.52;8.18;;;;;;;;;;4969269;28;21189;-71
2023/01/09 08:31:42;;;;;;;20.02;7.93;;;;;;;;;;4969681;28;20057;-71
2023/01/09 08:34:09;;;;;;;16.38;7.85;;;;;;;;;;4965259;28;20051;-71
2023/01/09 08:36:36;;;;;;;21.13;7.97;;;;;;;;;;4968101;28;20070;-70
2023/01/09 08:39:04;;;;;;;19.90;8.77;;;;;;;;;;4968819;28;20066;-71
2023/01/09 08:47:05;;;;;;;13.85;8.13;;;;;;;;;;4966761;28;20478;-71
2023/01/09 08:49:33;;;;;;;14.68;7.97;;;;;;;;;;4967184;28;20578;-71
2023/01/09 08:52:00;;;;;;;12.95;7.63;;;;;;;;;;4961483;28;20402;-71
2023/01/09 08:54:27;;;;;;;15.65;7.38;;;;;;;;;;4969136;28;20059;-71
2023/01/09 08:56:54;;;;;;;13.70;7.00;;;;;;;;;;4959174;28;20062;-71
2023/01/09 08:59:23;;;;;;;16.33;7.20;;;;;;;;;;4958219;28;20140;-71
2023/01/09 09:01:50;;;;;;;15.57;7.25;;;;;;;;;;4961051;28;20818;-70
2023/01/09 09:04:18;;;;;;;19.30;7.05;;;;;;;;;;4970946;28;20053;-71
2023/01/09 09:06:45;;;;;;;14.77;6.78;;;;;;;;;;4966051;28;20059;-70
2023/01/09 09:09:12;;;;;;;15.45;6.78;;;;;;;;;;4968002;28;20163;-71
2023/01/09 09:11:39;;;;;;;13.13;6.57;;;;;;;;;;4972013;28;20047;-71
2023/01/09 09:16:49;;;;;;;14.55;6.30;;;;;;;;;;4965701;28;20456;-70
2023/01/09 09:19:16;;;;;;;14.98;6.55;;;;;;;;;;4969044;28;20039;-71
2023/01/09 09:21:44;;;;;;;11.98;6.07;;;;;;;;;;4971104;28;20053;-71
2023/01/09 09:24:11;;;;;;;15.57;6.20;;;;;;;;;;4971409;28;20160;-70
2023/01/09 09:26:38;;;;;;;12.77;5.82;;;;;;;;;;4970915;28;20501;-70
2023/01/09 09:29:05;;;;;;;12.40;6.35;;;;;;;;;;4966933;28;20050;-71
2023/01/09 09:31:32;;;;;;;9.93;5.72;;;;;;;;;;4964073;28;20051;-71
2023/01/09 09:34:01;;;;;;;15.10;6.05;;;;;;;;;;4962974;28;20405;-70
2023/01/09 09:36:29;;;;;;;15.85;5.72;;;;;;;;;;4966987;28;20085;-71
2023/01/09 09:38:57;;;;;;;10.25;4.93;;;;;;;;;;4966700;28;20572;-70
2023/01/09 09:44:43;;;;;;;12.20;5.15;;;;;;;;;;4968382;28;20625;-70
2023/01/09 09:47:17;;;;;;;10.60;5.22;;;;;;;;;;4968693;28;20054;-71
2023/01/09 09:49:49;;;;;;;12.63;5.05;;;;;;;;;;4965002;28;20073;-71
2023/01/09 09:52:20;;;;;;;12.00;5.13;;;;;;;;;;4967576;28;20050;-71
2023/01/09 09:54:49;;;;;;;11.80;5.15;;;;;;;;;;4957489;28;20414;-70
2023/01/09 09:57:18;;;;;;;15.85;4.60;;;;;;;;;;4980939;28;20051;-71
2023/01/09 09:59:50;;;;;;;8.73;4.68;;;;;;;;;;4962097;28;20561;-71
2023/01/09 10:02:25;;;;;;;10.65;5.47;;;;;;;;;;4969633;28;20482;-71
2023/01/09 10:04:57;;;;;;;14.32;5.68;;;;;;;;;;4959554;28;20056;-71
2023/01/09 10:07:26;;;;;;;12.93;5.15;;;;;;;;;;4943307;29;20151;-70
2023/01/09 10:09:55;;;;;;;13.13;4.90;;;;;;;;;;4947930;28;20491;-71
2023/01/09 10:12:27;;;;;;;12.45;4.60;;;;;;;;;;4924134;29;20062;-70
2023/01/09 10:14:54;;;;;;;12.63;5.05;;;;;;;;;;4944659;29;20502;-71
2023/01/09 10:17:51;;;;;;;8.15;4.20;;;;;;;;;;4950867;28;20099;-71
2023/01/09 10:20:36;;;;;;;13.90;5.50;;;;;;;;;;4915536;29;20045;-71
2023/01/09 10:23:12;;;;;;;10.20;4.95;;;;;;;;;;4944303;28;20051;-70
2023/01/09 10:25:43;;;;;;;10.00;4.85;;;;;;;;;;4949966;28;20103;-69
2023/01/09 10:28:20;;;;;;;21.08;7.68;;;;;;;;;;4949851;28;20051;-71
2023/01/09 10:30:49;;;;;;;32.13;10.57;;;;;;;;;;4950458;29;20055;-70
2023/01/09 10:33:27;;;;;;;11.00;5.00;;;;;;;;;;4948344;28;20051;-71
2023/01/09 10:36:06;;;;;;;14.00;5.97;;;;;;;;;;4950930;28;20062;-70
2023/01/09 10:38:36;;;;;;;10.90;4.60;;;;;;;;;;4951819;28;20482;-70
2023/01/09 10:41:05;;;;;;;14.13;4.82;;;;;;;;;;4934260;29;20070;-71
2023/01/09 10:43:37;;;;;;;10.00;3.90;;;;;;;;;;4946271;29;20550;-71
2023/01/09 10:46:05;;;;;;;8.82;4.28;;;;;;;;;;4945933;28;20051;-71
2023/01/09 10:48:34;;;;;;;8.13;3.30;;;;;;;;;;4949723;29;20055;-70
2023/01/09 10:51:03;;;;;;;11.77;3.75;;;;;;;;;;4946924;28;20050;-70
2023/01/09 10:53:32;;;;;;;9.23;3.70;;;;;;;;;;4944275;28;20047;-70
2023/01/09 10:56:04;;;;;;;11.63;3.47;;;;;;;;;;4945589;28;20063;-70
2023/01/09 10:58:31;;;;;;;10.07;3.53;;;;;;;;;;4943204;28;20578;-71
2023/01/09 11:01:00;;;;;;;11.20;3.30;;;;;;;;;;4942008;28;20051;-70
2023/01/09 11:03:28;;;;;;;9.02;3.47;;;;;;;;;;4942510;29;20105;-71
2023/01/09 11:05:58;;;;;;;8.38;3.22;;;;;;;;;;4960218;28;20074;-70
2023/01/09 11:08:27;;;;;;;8.63;4.05;;;;;;;;;;4969595;28;20395;-71
2023/01/09 11:10:55;;;;;;;8.50;3.85;;;;;;;;;;4968043;28;20047;-71
2023/01/09 11:13:25;;;;;;;12.63;4.40;;;;;;;;;;4966057;28;20062;-71
2023/01/09 11:16:00;;;;;;;9.90;4.88;;;;;;;;;;4955970;28;20118;-71
2023/01/09 11:18:27;;;;;;;7.75;4.32;;;;;;;;;;4958964;28;20043;-71
2023/01/09 11:20:55;;;;;;;8.23;4.57;;;;;;;;;;4957913;28;20039;-71
2023/01/09 11:23:32;;;;;;;13.32;4.70;;;;;;;;;;4966503;28;20047;-71
2023/01/09 11:26:01;;;;;;;10.85;4.30;;;;;;;;;;4958108;28;20058;-70
2023/01/09 11:28:29;;;;;;;11.25;4.95;;;;;;;;;;4961672;28;20047;-71
2023/01/09 11:30:59;;;;;;;10.60;4.93;;;;;;;;;;4963803;28;20050;-70
2023/01/09 11:33:28;;;;;;;10.48;4.90;;;;;;;;;;4952949;28;20059;-70
2023/01/09 11:35:57;;;;;;;12.70;5.45;;;;;;;;;;4964997;28;20051;-71
2023/01/09 11:38:24;;;;;;;11.50;5.22;;;;;;;;;;4962098;28;20047;-71
2023/01/09 11:40:52;;;;;;;8.88;5.55;;;;;;;;;;4959925;28;20490;-71
2023/01/09 11:43:23;;;;;;;21.00;6.38;;;;;;;;;;4963423;28;20562;-70
2023/01/09 11:45:55;;;;;;;13.63;5.70;;;;;;;;;;4962088;28;20053;-70
2023/01/09 11:48:43;;;;;;;11.45;6.40;;;;;;;;;;4963657;28;20055;-71
2023/01/09 11:51:18;;;;;;;15.55;6.43;;;;;;;;;;4963486;28;20047;-71
2023/01/09 11:53:56;;;;;;;14.48;6.13;;;;;;;;;;4959585;28;20062;-70
2023/01/09 11:56:24;;;;;;;12.77;6.03;;;;;;;;;;4965128;28;20070;-71
2023/01/09 11:58:51;;;;;;;13.05;6.78;;;;;;;;;;4959393;28;20617;-70
2023/01/09 12:01:33;;;;;;;10.23;6.80;;;;;;;;;;4964030;28;20053;-71
2023/01/09 12:04:08;;;;;;;15.25;7.18;;;;;;;;;;4956598;28;20458;-71
2023/01/09 12:06:40;;;;;;;14.60;7.20;;;;;;;;;;4964364;28;20359;-71
2023/01/09 12:09:08;;;;;;;10.52;6.70;;;;;;;;;;4961528;28;20441;-70
2023/01/09 12:11:39;;;;;;;14.75;7.18;;;;;;;;;;4959368;28;20050;-71
2023/01/09 12:14:22;;;;;;;14.68;7.85;;;;;;;;;;4963132;28;20049;-71
2023/01/09 12:16:59;;;;;;;14.57;7.65;;;;;;;;;;4957409;28;20070;-71
2023/01/09 12:19:39;;;;;;;15.63;8.02;;;;;;;;;;4963138;28;20069;-70
2023/01/09 12:22:11;;;;;;;14.88;7.85;;;;;;;;;;4958277;28;20126;-70
2023/01/09 12:24:52;;;;;;;13.20;7.57;;;;;;;;;;4964928;28;20047;-71
2023/01/09 12:27:25;;;;;;;11.70;6.50;;;;;;;;;;4959904;28;20134;-71
2023/01/09 12:30:10;;;;;;;12.55;6.45;;;;;;;;;;4960864;28;20398;-71
2023/01/09 12:32:43;;;;;;;15.88;6.60;;;;;;;;;;4960285;28;20051;-70
2023/01/09 12:35:19;;;;;;;15.50;6.10;;;;;;;;;;4962242;28;20557;-71
2023/01/09 12:37:57;;;;;;;14.88;6.30;;;;;;;;;;4963079;28;20051;-70
2023/01/09 12:40:32;;;;;;;14.27;6.20;;;;;;;;;;4958485;28;20517;-71
2023/01/09 12:43:04;;;;;;;19.73;5.65;;;;;;;;;;4960252;28;20524;-71
2023/01/09 12:45:39;;;;;;;20.02;5.32;;;;;;;;;;4959914;28;20605;-70
2023/01/09 12:48:10;;;;;;;13.80;4.82;;;;;;;;;;4962866;28;20055;-70
2023/01/09 12:50:53;;;;;;;18.48;5.53;;;;;;;;;;4963012;28;20500;-71
2023/01/09 12:53:24;;;;;;;10.25;3.92;;;;;;;;;;4955974;28;20087;-72
2023/01/09 12:55:53;;;;;;;14.90;3.88;;;;;;;;;;4957952;28;20074;-72
2023/01/09 12:58:29;;;;;;;20.95;3.20;;;;;;;;;;4965161;28;20059;-70
2023/01/09 13:00:58;;;;;;;13.93;3.28;;;;;;;;;;4964891;28;20061;-70
2023/01/09 13:03:27;;;;;;;13.48;3.20;;;;;;;;;;4969353;28;20055;-70
2023/01/09 13:05:57;;;;;;;14.32;2.90;;;;;;;;;;4961411;28;20488;-71
2023/01/09 13:08:26;;;;;;;21.02;2.60;;;;;;;;;;4964804;28;20053;-71
2023/01/09 13:10:54;;;;;;;14.55;2.60;;;;;;;;;;4965571;28;20054;-71
2023/01/09 13:13:25;;;;;;;17.17;2.13;;;;;;;;;;4958904;28;20059;-72
2023/01/09 13:15:54;;;;;;;13.63;2.08;;;;;;;;;;4961620;28;20529;-70
2023/01/09 13:18:23;;;;;;;17.65;2.40;;;;;;;;;;4964434;28;20056;-71
2023/01/09 13:20:51;;;;;;;17.27;2.20;;;;;;;;;;4959031;28;20404;-71
2023/01/09 13:23:22;;;;;;;15.20;2.28;;;;;;;;;;4960681;28;20432;-70
2023/01/09 13:25:52;;;;;;;14.35;2.05;;;;;;;;;;4967153;28;20389;-70
2023/01/09 13:28:21;;;;;;;14.15;1.98;;;;;;;;;;4967218;28;20050;-69
2023/01/09 13:31:03;;;;;;;17.33;2.67;;;;;;;;;;4966284;28;20059;-69
2023/01/09 13:33:31;;;;;;;10.90;3.10;;;;;;;;;;4971750;28;20481;-69
2023/01/09 13:36:01;;;;;;;14.35;1.95;;;;;;;;;;4970012;28;20061;-69
2023/01/09 13:38:30;;;;;;;20.00;2.20;;;;;;;;;;4967904;28;20065;-69
2023/01/09 13:42:34;;;;;;;20.98;2.42;;;;;;;;;;4965825;28;20039;-69
2023/01/09 13:43:54;;;;;;;18.85;2.33;;;;;;;;;;4965948;28;20050;-69
2023/01/09 13:46:21;;;;;;;19.10;2.50;;;;;;;;;;4962972;28;20061;-69
2023/01/09 13:48:48;;;;;;;12.75;2.30;;;;;;;;;;4967670;28;20039;-69
2023/01/09 13:51:34;;;;;;;18.00;2.60;;;;;;;;;;4966583;28;20050;-69
2023/01/09 13:54:03;;;;;;;19.90;2.67;;;;;;;;;;4958252;28;20055;-70
2023/01/09 13:56:30;;;;;;;19.08;3.33;;;;;;;;;;4965471;28;20045;-69
2023/01/09 13:58:59;;;;;;;14.00;2.38;;;;;;;;;;4965016;28;20058;-69
2023/01/09 14:01:42;;;;;;;26.23;2.85;;;;;;;;;;4965350;28;20487;-69
2023/01/09 14:04:27;;;;;;;19.33;2.28;;;;;;;;;;4967841;28;20688;-69
2023/01/09 14:07:12;;;;;;;17.90;2.63;;;;;;;;;;4971167;28;20065;-69
2023/01/09 14:09:46;;;;;;;20.30;3.08;;;;;;;;;;4956018;28;20051;-69
2023/01/09 14:12:15;;;;;;;22.80;2.70;;;;;;;;;;4963537;28;20810;-70
2023/01/09 14:14:45;;;;;;;17.90;2.50;;;;;;;;;;4959693;28;20051;-70
2023/01/09 14:17:16;;;;;;;20.65;3.30;;;;;;;;;;4964682;28;20047;-69
2023/01/09 14:19:44;;;;;;;21.15;2.92;;;;;;;;;;4968404;28;20051;-70
2023/01/09 14:22:23;;;;;;;16.75;2.67;;;;;;;;;;4963836;28;20039;-70
2023/01/09 14:24:52;;;;;;;15.10;2.53;;;;;;;;;;4965677;28;20059;-70
2023/01/09 14:27:38;;;;;;;17.83;2.80;;;;;;;;;;4966838;28;20122;-70
2023/01/09 14:30:23;;;;;;;21.85;3.17;;;;;;;;;;4967055;28;20520;-70
2023/01/09 14:32:56;;;;;;;28.85;3.53;;;;;;;;;;4961928;28;20130;-71
2023/01/09 14:35:23;;;;;;;;;;;;;;;;;;4964167;28;20055;-70
2023/01/09 14:37:56;;;;;;;20.92;2.53;;;;;;;;;;4969314;28;19922;-70
2023/01/09 14:40:25;;;;;;;25.08;3.08;;;;;;;;;;4965243;28;20062;-70
2023/01/09 14:42:53;;;;;;;21.27;2.97;;;;;;;;;;4964015;28;20049;-70
2023/01/09 14:45:22;;;;;;;23.65;2.95;;;;;;;;;;4967793;28;20051;-70
2023/01/09 14:47:52;;;;;;;19.85;2.92;;;;;;;;;;4969910;28;20502;-70
2023/01/09 14:50:22;;;;;;;23.48;2.85;;;;;;;;;;4970311;28;20051;-70
2023/01/09 14:52:51;;;;;;;25.83;3.15;;;;;;;;;;4964224;28;20051;-70
2023/01/09 14:55:22;;;;;;;21.42;2.22;;;;;;;;;;4963732;28;20153;-70
2023/01/09 14:57:53;;;;;;;23.63;2.45;;;;;;;;;;4965904;28;20409;-70
2023/01/09 15:00:21;;;;;;;26.85;3.55;;;;;;;;;;4969019;28;20055;-69